createdAt,value
2023-04-19T00:00:06.375Z,3.08
2023-04-19T00:03:10.298Z,2.20
2023-04-19T00:06:15.210Z,2.55
2023-04-19T00:09:17.216Z,3.25
2023-04-19T00:12:19.372Z,2.90
2023-04-19T00:15:21.426Z,3.08
2023-04-19T00:18:26.711Z,2.20
2023-04-19T00:21:28.736Z,2.28
2023-04-19T00:24:31.149Z,1.58
2023-04-19T00:27:33.573Z,3.03
2023-04-19T00:30:35.804Z,2.90
2023-04-19T00:33:38.891Z,2.10
2023-04-19T00:36:41.098Z,2.30
2023-04-19T00:39:43.192Z,3.00
2023-04-19T00:42:45.239Z,4.70
2023-04-19T00:45:48.517Z,2.53
2023-04-19T00:48:51.228Z,2.73
2023-04-19T00:51:53.573Z,2.38
2023-04-19T00:54:58.168Z,2.47
2023-04-19T00:58:02.625Z,2.88
2023-04-19T01:01:04.925Z,2.40
2023-04-19T01:04:07.037Z,2.50
2023-04-19T01:07:09.516Z,2.67
2023-04-19T01:10:11.598Z,1.95
2023-04-19T01:13:13.726Z,1.88
2023-04-19T01:16:15.968Z,2.00
2023-04-19T01:19:18.645Z,2.35
2023-04-19T01:22:23.166Z,2.53
2023-04-19T01:25:25.714Z,1.83
2023-04-19T01:28:27.766Z,1.58
2023-04-19T01:31:30.030Z,2.17
2023-04-19T01:34:32.175Z,2.58
2023-04-19T01:37:37.756Z,1.33
2023-04-19T01:40:39.715Z,1.88
2023-04-19T01:43:41.678Z,2.08
2023-04-19T01:46:43.703Z,2.00
2023-04-19T01:49:45.936Z,2.00
2023-04-19T01:52:48.040Z,2.40
2023-04-19T01:55:50.331Z,1.88
2023-04-19T01:58:52.370Z,1.73
2023-04-19T02:01:54.455Z,2.28
2023-04-19T02:04:57.352Z,2.00
2023-04-19T02:08:01.596Z,2.00
2023-04-19T02:11:08.816Z,2.03
2023-04-19T02:14:11.226Z,1.90
2023-04-19T02:17:13.444Z,2.63
2023-04-19T02:20:15.418Z,1.95
2023-04-19T02:23:17.388Z,2.33
2023-04-19T02:26:20.628Z,1.55
2023-04-19T02:29:22.660Z,1.90
2023-04-19T02:32:24.996Z,1.95
2023-04-19T02:35:27.053Z,1.83
2023-04-19T02:38:29.166Z,1.88
2023-04-19T02:41:31.276Z,2.15
2023-04-19T02:44:33.304Z,1.70
2023-04-19T02:47:35.336Z,2.22
2023-04-19T02:50:38.740Z,1.75
2023-04-19T02:53:40.947Z,2.70
2023-04-19T02:56:43.542Z,1.60
2023-04-19T02:59:45.547Z,2.00
2023-04-19T03:02:47.756Z,2.10
2023-04-19T03:05:49.917Z,1.95
2023-04-19T03:08:51.995Z,2.30
2023-04-19T03:11:54.041Z,1.50
2023-04-19T03:14:56.169Z,1.98
2023-04-19T03:17:58.329Z,2.38
2023-04-19T03:21:00.389Z,2.08
2023-04-19T03:24:02.704Z,2.03
2023-04-19T03:27:04.775Z,1.00
2023-04-19T03:30:07.850Z,2.05
2023-04-19T03:33:09.906Z,1.77
2023-04-19T03:36:12.501Z,1.60
2023-04-19T03:39:14.545Z,1.00
2023-04-19T03:42:16.561Z,2.60
2023-04-19T03:45:18.708Z,1.38
2023-04-19T03:48:20.840Z,1.58
2023-04-19T03:51:22.892Z,1.52
2023-04-19T03:54:24.933Z,2.40
2023-04-19T03:57:26.931Z,1.65
2023-04-19T04:00:29.056Z,1.58
2023-04-19T04:03:31.375Z,1.60
2023-04-19T04:06:33.699Z,2.42
2023-04-19T04:09:35.669Z,2.03
2023-04-19T04:12:37.822Z,1.95
2023-04-19T04:15:44.033Z,2.22
2023-04-19T04:18:53.356Z,1.65
2023-04-19T04:21:55.618Z,1.95
2023-04-19T04:24:58.284Z,2.60
2023-04-19T04:28:00.276Z,2.40
2023-04-19T04:31:02.367Z,2.30
2023-04-19T04:34:04.483Z,2.30
2023-04-19T04:37:07.543Z,2.70
2023-04-19T04:40:10.242Z,2.72
2023-04-19T04:43:13.645Z,2.30
2023-04-19T04:46:15.824Z,2.03
2023-04-19T04:49:17.896Z,2.05
2023-04-19T04:52:19.942Z,2.42
2023-04-19T04:55:22.080Z,2.38
2023-04-19T04:58:24.130Z,2.30
2023-04-19T05:01:26.305Z,2.15
2023-04-19T05:04:28.364Z,2.78
2023-04-19T05:07:30.405Z,2.05
2023-04-19T05:10:32.631Z,3.33
2023-04-19T05:13:35.439Z,3.25
2023-04-19T05:16:37.430Z,1.83
2023-04-19T05:19:39.557Z,2.50
2023-04-19T05:22:41.598Z,3.22
2023-04-19T05:25:43.725Z,2.25
2023-04-19T05:28:46.090Z,2.67
2023-04-19T05:31:48.374Z,3.05
2023-04-19T05:34:50.833Z,3.78
2023-04-19T05:37:53.029Z,2.50
2023-04-19T05:40:55.056Z,2.95
2023-04-19T05:43:57.065Z,3.22
2023-04-19T05:46:59.062Z,4.22
2023-04-19T05:50:01.153Z,5.60
2023-04-19T05:53:03.851Z,4.10
2023-04-19T05:56:06.001Z,5.45
2023-04-19T05:59:08.534Z,5.22
2023-04-19T06:02:11.115Z,4.95
2023-04-19T06:05:13.667Z,7.03
2023-04-19T06:08:17.039Z,5.07
2023-04-19T06:11:26.355Z,4.63
2023-04-19T06:17:35.636Z,4.13
2023-04-19T06:20:38.407Z,4.38
2023-04-19T06:23:40.492Z,3.53
2023-04-19T06:26:43.364Z,2.50
2023-04-19T06:29:47.589Z,3.47
2023-04-19T06:32:50.711Z,4.03
2023-04-19T06:35:53.004Z,3.42
2023-04-19T06:38:55.038Z,3.05
2023-04-19T06:41:57.081Z,3.10
2023-04-19T06:44:59.164Z,3.50
2023-04-19T06:48:02.093Z,3.60
2023-04-19T06:51:04.408Z,3.00
2023-04-19T06:54:07.735Z,5.45
2023-04-19T06:57:09.916Z,4.13
2023-04-19T07:00:13.941Z,3.33
2023-04-19T07:06:17.965Z,4.45
2023-04-19T07:09:20.096Z,3.58
2023-04-19T07:12:28.880Z,2.95
2023-04-19T07:15:31.094Z,3.10
2023-04-19T07:18:33.108Z,2.47
2023-04-19T07:21:35.757Z,2.85
2023-04-19T07:24:40.335Z,3.75
2023-04-19T07:27:44.922Z,3.75
2023-04-19T07:30:46.981Z,3.58
2023-04-19T07:33:49.095Z,3.78
2023-04-19T07:36:51.125Z,4.18
2023-04-19T07:39:53.189Z,4.18
2023-04-19T07:42:56.045Z,6.07
2023-04-19T07:45:58.142Z,3.35
2023-04-19T07:49:00.207Z,3.45
2023-04-19T07:52:03.047Z,3.35
2023-04-19T07:55:05.549Z,4.53
2023-04-19T07:58:07.743Z,4.07
2023-04-19T08:01:09.861Z,2.65
2023-04-19T08:04:12.146Z,3.08
2023-04-19T08:07:14.295Z,3.40
2023-04-19T08:10:16.474Z,3.75
2023-04-19T08:13:18.462Z,2.65
2023-04-19T08:16:56.240Z,2.85
2023-04-19T08:19:43.065Z,2.97
2023-04-19T08:22:45.729Z,2.57
2023-04-19T08:25:47.860Z,1.80
2023-04-19T08:28:52.403Z,1.92
2023-04-19T08:31:54.573Z,2.72
2023-04-19T08:34:57.531Z,5.75
2023-04-19T08:37:59.647Z,4.63
2023-04-19T08:41:01.898Z,2.22
2023-04-19T08:44:05.152Z,3.57
2023-04-19T08:47:09.050Z,2.50
2023-04-19T08:50:24.069Z,2.83
2023-04-19T08:53:31.396Z,3.00
2023-04-19T08:56:35.788Z,3.10
2023-04-19T08:59:38.435Z,3.42
2023-04-19T09:02:51.505Z,3.70
2023-04-19T09:05:55.026Z,3.17
2023-04-19T09:12:24.758Z,3.72
2023-04-19T09:15:41.949Z,2.75
2023-04-19T09:19:08.135Z,3.42
2023-04-19T09:22:18.179Z,3.63
2023-04-19T09:25:37.808Z,3.28
2023-04-19T09:28:59.338Z,3.80
2023-04-19T09:32:01.515Z,4.43
2023-04-19T09:35:04.057Z,5.40
2023-04-19T09:38:07.136Z,3.97
2023-04-19T09:41:10.745Z,3.85
2023-04-19T09:47:30.222Z,3.17
2023-04-19T09:50:33.813Z,4.43
2023-04-19T09:53:40.152Z,3.40
2023-04-19T09:56:42.849Z,3.55
2023-04-19T09:59:44.794Z,3.80
2023-04-19T10:02:54.724Z,4.30
2023-04-19T10:05:57.962Z,3.60
2023-04-19T10:09:05.332Z,3.72
2023-04-19T10:12:25.081Z,8.07
2023-04-19T10:15:49.356Z,3.35
2023-04-19T10:18:53.879Z,3.85
2023-04-19T10:25:11.854Z,3.50
2023-04-19T10:28:16.023Z,3.45
2023-04-19T10:31:24.035Z,2.90
2023-04-19T10:34:39.930Z,3.67
2023-04-19T10:37:42.158Z,5.35
2023-04-19T10:40:57.367Z,3.25
2023-04-19T10:43:59.292Z,2.83
2023-04-19T10:47:01.465Z,2.70
2023-04-19T10:50:05.232Z,2.63
2023-04-19T10:53:44.648Z,2.13
2023-04-19T10:57:06.800Z,5.32
2023-04-19T11:00:22.147Z,2.65
2023-04-19T11:03:42.928Z,3.38
2023-04-19T11:06:51.842Z,2.38
2023-04-19T11:09:53.980Z,2.10
2023-04-19T11:12:56.064Z,2.57
2023-04-19T11:15:59.596Z,2.60
2023-04-19T11:19:01.919Z,3.05
2023-04-19T11:22:04.675Z,2.13
2023-04-19T11:25:19.248Z,1.77
2023-04-19T11:28:24.477Z,2.67
2023-04-19T11:31:26.872Z,3.28
2023-04-19T11:34:29.036Z,2.50
2023-04-19T11:37:36.463Z,3.00
2023-04-19T11:40:39.710Z,2.58
2023-04-19T11:43:45.262Z,2.40
2023-04-19T11:47:05.293Z,2.33
2023-04-19T11:50:39.231Z,2.92
2023-04-19T11:57:03.842Z,3.25
2023-04-19T12:00:12.771Z,3.33
2023-04-19T12:03:15.459Z,2.92
2023-04-19T12:06:25.663Z,3.40
2023-04-19T12:09:27.979Z,3.13
2023-04-19T12:12:33.336Z,6.97
2023-04-19T12:15:42.989Z,4.55
2023-04-19T12:18:50.510Z,3.05
2023-04-19T12:21:53.722Z,3.00
2023-04-19T12:24:56.208Z,3.80
2023-04-19T12:27:59.166Z,3.80
2023-04-19T12:31:01.191Z,2.35
2023-04-19T12:34:03.296Z,3.10
2023-04-19T12:37:05.392Z,2.35
2023-04-19T12:40:08.250Z,2.13
2023-04-19T12:43:10.456Z,3.13
2023-04-19T12:46:13.368Z,3.22
2023-04-19T12:49:17.981Z,4.70
2023-04-19T12:52:20.065Z,2.28
2023-04-19T12:55:22.305Z,3.20
2023-04-19T12:58:25.226Z,3.13
2023-04-19T13:01:27.402Z,2.75
2023-04-19T13:04:29.687Z,3.75
2023-04-19T13:07:31.863Z,3.90
2023-04-19T13:10:33.954Z,3.03
2023-04-19T13:13:36.119Z,3.10
2023-04-19T13:16:38.236Z,2.88
2023-04-19T13:19:40.518Z,3.22
2023-04-19T13:22:42.556Z,1.77
2023-04-19T13:25:44.544Z,3.08
2023-04-19T13:28:46.613Z,3.63
2023-04-19T13:31:49.613Z,5.00
2023-04-19T13:34:52.083Z,5.07
2023-04-19T13:37:54.258Z,5.30
2023-04-19T13:40:56.357Z,3.60
2023-04-19T13:43:58.454Z,5.85
2023-04-19T13:47:01.012Z,4.53
2023-04-19T13:50:03.260Z,3.50
2023-04-19T13:53:05.449Z,4.05
2023-04-19T13:56:11.012Z,4.28
2023-04-19T13:59:13.231Z,3.85
2023-04-19T14:02:15.360Z,4.05
2023-04-19T14:05:17.638Z,3.90
2023-04-19T14:08:19.690Z,4.13
2023-04-19T14:11:21.849Z,3.33
2023-04-19T14:14:23.884Z,3.35
2023-04-19T14:17:26.429Z,3.20
2023-04-19T14:20:28.665Z,4.40
2023-04-19T14:23:30.766Z,4.63
2023-04-19T14:26:32.731Z,4.20
2023-04-19T14:29:34.840Z,4.07
2023-04-19T14:32:37.281Z,3.38
2023-04-19T14:35:41.023Z,2.72
2023-04-19T14:38:42.997Z,3.97
2023-04-19T14:41:45.093Z,3.20
2023-04-19T14:44:47.572Z,3.42
2023-04-19T14:47:49.558Z,4.35
2023-04-19T14:50:51.657Z,3.25
2023-04-19T14:53:53.680Z,3.78
2023-04-19T14:56:55.817Z,4.70
2023-04-19T14:59:58.454Z,4.05
2023-04-19T15:03:01.424Z,4.97
2023-04-19T15:06:04.601Z,3.42
2023-04-19T15:09:06.598Z,3.67
2023-04-19T15:12:09.722Z,3.03
2023-04-19T15:15:12.024Z,3.20
2023-04-19T15:18:14.013Z,5.05
2023-04-19T15:21:18.892Z,3.88
2023-04-19T15:24:20.946Z,4.15
2023-04-19T15:27:22.996Z,3.80
2023-04-19T15:30:25.028Z,3.53
2023-04-19T15:33:27.607Z,4.22
2023-04-19T15:36:31.201Z,5.95
2023-04-19T15:39:33.291Z,3.15
2023-04-19T15:42:35.685Z,5.15
2023-04-19T15:45:37.832Z,3.00
2023-04-19T15:48:40.505Z,4.03
2023-04-19T15:51:42.566Z,3.97
2023-04-19T15:54:44.687Z,4.00
2023-04-19T15:57:49.853Z,3.72
2023-04-19T16:00:52.067Z,5.03
2023-04-19T16:03:54.323Z,4.07
2023-04-19T16:06:56.532Z,4.22
2023-04-19T16:09:58.622Z,3.90
2023-04-19T16:13:01.457Z,3.63
2023-04-19T16:16:03.560Z,4.95
2023-04-19T16:19:05.608Z,4.03
2023-04-19T16:22:07.647Z,3.80
2023-04-19T16:25:11.568Z,4.15
2023-04-19T16:31:16.191Z,4.00
2023-04-19T16:34:19.156Z,5.57
2023-04-19T16:37:21.426Z,5.00
2023-04-19T16:40:23.690Z,3.58
2023-04-19T16:43:25.638Z,4.57
2023-04-19T16:46:28.016Z,3.83
2023-04-19T16:49:30.096Z,5.68
2023-04-19T16:52:35.008Z,4.10
2023-04-19T16:55:38.158Z,3.13
2023-04-19T16:58:40.587Z,4.72
2023-04-19T17:01:44.382Z,5.03
2023-04-19T17:04:46.773Z,3.85
2023-04-19T17:07:50.177Z,4.40
2023-04-19T17:10:54.103Z,4.55
2023-04-19T17:13:56.881Z,4.93
2023-04-19T17:16:58.990Z,4.22
2023-04-19T17:20:01.354Z,3.80
2023-04-19T17:23:03.476Z,5.20
2023-04-19T17:26:05.898Z,5.15
2023-04-19T17:29:09.009Z,4.43
2023-04-19T17:32:11.115Z,4.50
2023-04-19T17:35:13.189Z,4.93
2023-04-19T17:38:15.219Z,4.28
2023-04-19T17:41:17.289Z,5.25
2023-04-19T17:44:19.309Z,5.63
2023-04-19T17:47:21.516Z,3.80
2023-04-19T17:50:23.779Z,4.80
2023-04-19T17:53:25.780Z,5.53
2023-04-19T17:56:28.520Z,4.93
2023-04-19T17:59:30.567Z,5.85
2023-04-19T18:02:32.777Z,4.35
2023-04-19T18:05:34.978Z,6.40
2023-04-19T18:08:37.232Z,5.35
2023-04-19T18:11:39.960Z,6.97
2023-04-19T18:14:42.042Z,5.00
2023-04-19T18:17:44.169Z,5.63
2023-04-19T18:20:46.460Z,6.10
2023-04-19T18:23:48.743Z,5.30
2023-04-19T18:26:50.838Z,5.72
2023-04-19T18:29:53.189Z,5.68
2023-04-19T18:32:56.221Z,6.65
2023-04-19T18:35:58.434Z,8.63
2023-04-19T18:39:00.518Z,5.55
2023-04-19T18:42:03.150Z,8.32
2023-04-19T18:45:06.127Z,5.40
2023-04-19T18:48:08.440Z,6.85
2023-04-19T18:51:11.267Z,6.10
2023-04-19T18:54:13.415Z,7.20
2023-04-19T19:00:21.886Z,8.40
2023-04-19T19:06:29.235Z,7.65
2023-04-19T19:09:31.445Z,8.43
2023-04-19T19:12:33.527Z,7.78
2023-04-19T19:15:36.948Z,6.07
2023-04-19T19:18:39.140Z,6.93
2023-04-19T19:21:41.332Z,7.60
2023-04-19T19:24:43.564Z,10.02
2023-04-19T19:28:02.802Z,7.82
2023-04-19T19:31:08.921Z,7.53
2023-04-19T19:34:25.253Z,8.07
2023-04-19T19:37:29.807Z,6.60
2023-04-19T19:40:32.819Z,8.77
2023-04-19T19:43:35.211Z,8.00
2023-04-19T19:46:38.750Z,7.03
2023-04-19T19:49:57.567Z,8.07
2023-04-19T19:53:03.554Z,7.45
2023-04-19T19:56:13.038Z,7.88
2023-04-19T20:02:22.483Z,8.27
2023-04-19T20:05:25.057Z,7.15
2023-04-19T20:08:28.550Z,6.80
2023-04-19T20:11:30.670Z,6.82
2023-04-19T20:14:36.184Z,7.15
2023-04-19T20:17:40.513Z,8.88
2023-04-19T20:23:44.831Z,7.15
2023-04-19T20:26:46.833Z,6.03
2023-04-19T20:29:48.906Z,7.18
2023-04-19T20:32:51.030Z,6.68
2023-04-19T20:35:53.698Z,8.15
2023-04-19T20:38:58.778Z,7.32
2023-04-19T20:42:01.463Z,8.38
2023-04-19T20:45:04.296Z,8.27
2023-04-19T20:48:08.646Z,7.22
2023-04-19T20:54:14.845Z,7.57
2023-04-19T20:57:16.853Z,8.27
2023-04-19T21:00:19.112Z,6.53
2023-04-19T21:03:22.391Z,7.03
2023-04-19T21:06:24.585Z,8.10
2023-04-19T21:09:26.702Z,8.13
2023-04-19T21:12:28.897Z,7.75
2023-04-19T21:15:31.167Z,7.72
2023-04-19T21:18:33.322Z,6.35
2023-04-19T21:21:35.847Z,8.60
2023-04-19T21:24:37.847Z,8.13
2023-04-19T21:27:41.356Z,7.93
2023-04-19T21:30:43.508Z,9.23
2023-04-19T21:33:46.378Z,7.53
2023-04-19T21:36:48.424Z,8.43
2023-04-19T21:39:50.525Z,8.15
2023-04-19T21:43:07.269Z,8.30
2023-04-19T21:46:09.484Z,8.25
2023-04-19T21:49:11.613Z,8.85
2023-04-19T21:52:14.098Z,7.65
2023-04-19T21:55:16.276Z,9.15
2023-04-19T21:58:19.009Z,6.95
2023-04-19T22:01:22.065Z,6.07
2023-04-19T22:04:24.347Z,8.77
2023-04-19T22:07:30.376Z,6.65
2023-04-19T22:10:34.265Z,6.97
2023-04-19T22:13:41.126Z,7.30
2023-04-19T22:16:43.856Z,8.52
2023-04-19T22:19:46.846Z,6.80
2023-04-19T22:22:48.919Z,11.32
2023-04-19T22:25:51.023Z,8.13
2023-04-19T22:28:54.348Z,7.32
2023-04-19T22:31:56.356Z,8.68
2023-04-19T22:34:58.326Z,7.68
2023-04-19T22:38:00.513Z,8.38
2023-04-19T22:41:02.646Z,7.72
2023-04-19T22:44:04.826Z,7.82
2023-04-19T22:47:07.834Z,8.00
2023-04-19T22:50:10.493Z,7.70
2023-04-19T22:53:13.462Z,8.88
2023-04-19T22:56:15.583Z,7.05
2023-04-19T22:59:18.083Z,6.07
2023-04-19T23:02:20.420Z,6.18
2023-04-19T23:05:22.529Z,6.88
2023-04-19T23:08:25.069Z,6.20
2023-04-19T23:11:29.962Z,8.27
2023-04-19T23:14:33.003Z,6.28
2023-04-19T23:17:35.184Z,6.00
2023-04-19T23:20:37.741Z,6.85
2023-04-19T23:23:39.984Z,7.40
2023-04-19T23:26:42.058Z,6.40
2023-04-19T23:29:44.369Z,4.80
2023-04-19T23:32:46.464Z,5.63
2023-04-19T23:35:48.593Z,6.47
2023-04-19T23:38:50.684Z,6.22
2023-04-19T23:41:52.734Z,6.85
2023-04-19T23:44:55.742Z,8.95
2023-04-19T23:47:57.802Z,7.50
2023-04-19T23:50:59.867Z,6.35
2023-04-19T23:54:01.923Z,7.65
2023-04-19T23:57:04.095Z,6.60
